createdAt,value
2023-04-07T00:00:19.742Z,1007.28
2023-04-07T00:01:19.911Z,1007.36
2023-04-07T00:02:21.003Z,1007.30
2023-04-07T00:03:20.408Z,1007.22
2023-04-07T00:04:20.654Z,1007.15
2023-04-07T00:05:21.373Z,1007.16
2023-04-07T00:06:21.828Z,1007.27
2023-04-07T00:07:21.109Z,1007.26
2023-04-07T00:08:21.862Z,1007.27
2023-04-07T00:09:22.321Z,1007.18
2023-04-07T00:10:21.643Z,1007.27
2023-04-07T00:11:21.814Z,1007.21
2023-04-07T00:12:22.819Z,1007.25
2023-04-07T00:13:22.162Z,1007.19
2023-04-07T00:14:23.193Z,1007.21
2023-04-07T00:15:23.360Z,1007.22
2023-04-07T00:16:25.315Z,1007.27
2023-04-07T00:17:22.859Z,1007.26
2023-04-07T00:18:23.688Z,1007.19
2023-04-07T00:19:23.225Z,1007.19
2023-04-07T00:20:23.421Z,1007.18
2023-04-07T00:21:23.593Z,1007.16
2023-04-07T00:22:24.726Z,1007.21
2023-04-07T00:23:24.015Z,1007.18
2023-04-07T00:24:33.903Z,1007.13
2023-04-07T00:25:27.332Z,1007.16
2023-04-07T00:26:24.561Z,1007.21
2023-04-07T00:27:24.747Z,1007.18
2023-04-07T00:28:24.937Z,1007.14
2023-04-07T00:29:25.129Z,1007.14
2023-04-07T00:30:46.303Z,1007.09
2023-04-07T00:31:27.399Z,1007.09
2023-04-07T00:32:25.736Z,1007.11
2023-04-07T00:33:25.960Z,1007.10
2023-04-07T00:34:26.134Z,1007.00
2023-04-07T00:35:26.345Z,1007.06
2023-04-07T00:36:26.457Z,1007.00
2023-04-07T00:37:27.328Z,1006.98
2023-04-07T00:38:26.856Z,1007.08
2023-04-07T00:39:27.040Z,1006.98
2023-04-07T00:40:27.237Z,1006.99
2023-04-07T00:41:27.404Z,1006.97
2023-04-07T00:42:28.192Z,1006.97
2023-04-07T00:43:27.693Z,1007.00
2023-04-07T00:44:27.857Z,1006.97
2023-04-07T00:45:28.070Z,1006.94
2023-04-07T00:46:28.324Z,1006.92
2023-04-07T00:47:28.923Z,1006.94
2023-04-07T00:48:30.297Z,1006.94
2023-04-07T00:49:28.659Z,1006.97
2023-04-07T00:50:29.833Z,1006.94
2023-04-07T00:51:29.826Z,1006.94
2023-04-07T00:52:29.831Z,1006.93
2023-04-07T00:53:29.211Z,1006.92
2023-04-07T00:54:29.872Z,1006.92
2023-04-07T00:55:29.642Z,1006.93
2023-04-07T00:56:30.676Z,1006.89
2023-04-07T00:57:29.801Z,1006.89
2023-04-07T00:58:29.949Z,1006.92
2023-04-07T00:59:30.132Z,1006.94
2023-04-07T01:00:30.283Z,1006.86
2023-04-07T01:01:30.633Z,1006.94
2023-04-07T01:02:31.484Z,1006.93
2023-04-07T01:03:31.606Z,1006.90
2023-04-07T01:04:31.782Z,1006.89
2023-04-07T01:05:31.873Z,1006.91
2023-04-07T01:06:31.266Z,1006.83
2023-04-07T01:07:32.196Z,1006.89
2023-04-07T01:08:32.331Z,1006.82
2023-04-07T01:09:31.748Z,1006.88
2023-04-07T01:10:32.878Z,1006.86
2023-04-07T01:11:32.130Z,1006.89
2023-04-07T01:12:32.300Z,1006.78
2023-04-07T01:13:33.202Z,1006.83
2023-04-07T01:14:32.619Z,1006.78
2023-04-07T01:15:32.784Z,1006.81
2023-04-07T01:16:33.015Z,1006.71
2023-04-07T01:17:33.123Z,1006.75
2023-04-07T01:18:33.278Z,1006.75
2023-04-07T01:19:33.445Z,1006.76
2023-04-07T01:20:34.828Z,1006.73
2023-04-07T01:21:34.828Z,1006.74
2023-04-07T01:22:33.959Z,1006.69
2023-04-07T01:23:34.126Z,1006.69
2023-04-07T01:24:34.282Z,1006.59
2023-04-07T01:25:34.452Z,1006.59
2023-04-07T01:26:34.620Z,1006.63
2023-04-07T01:27:34.803Z,1006.63
2023-04-07T01:28:35.000Z,1006.62
2023-04-07T01:29:35.224Z,1006.61
2023-04-07T01:30:35.399Z,1006.58
2023-04-07T01:31:35.582Z,1006.61
2023-04-07T01:32:36.361Z,1006.55
2023-04-07T01:33:36.710Z,1006.57
2023-04-07T01:34:37.829Z,1006.60
2023-04-07T01:35:37.334Z,1006.53
2023-04-07T01:36:37.924Z,1006.60
2023-04-07T01:37:36.707Z,1006.56
2023-04-07T01:38:36.894Z,1006.57
2023-04-07T01:39:37.107Z,1006.57
2023-04-07T01:40:38.874Z,1006.61
2023-04-07T01:41:37.380Z,1006.58
2023-04-07T01:42:38.333Z,1006.54
2023-04-07T01:43:37.728Z,1006.59
2023-04-07T01:44:37.907Z,1006.60
2023-04-07T01:45:38.045Z,1006.62
2023-04-07T01:46:38.214Z,1006.59
2023-04-07T01:47:38.558Z,1006.58
2023-04-07T01:48:38.685Z,1006.53
2023-04-07T01:49:38.802Z,1006.49
2023-04-07T01:50:39.843Z,1006.54
2023-04-07T01:51:39.136Z,1006.51
2023-04-07T01:52:39.881Z,1006.47
2023-04-07T01:53:40.339Z,1006.55
2023-04-07T01:54:40.339Z,1006.60
2023-04-07T01:55:40.032Z,1006.49
2023-04-07T01:56:40.198Z,1006.45
2023-04-07T01:57:40.440Z,1006.44
2023-04-07T01:58:40.629Z,1006.50
2023-04-07T01:59:40.794Z,1006.56
2023-04-07T02:00:40.958Z,1006.46
2023-04-07T02:01:42.007Z,1006.49
2023-04-07T02:02:41.597Z,1006.51
2023-04-07T02:03:41.591Z,1006.42
2023-04-07T02:04:41.603Z,1006.41
2023-04-07T02:05:41.762Z,1006.47
2023-04-07T02:06:41.934Z,1006.37
2023-04-07T02:07:42.125Z,1006.48
2023-04-07T02:08:42.277Z,1006.39
2023-04-07T02:09:42.895Z,1006.37
2023-04-07T02:10:42.601Z,1006.45
2023-04-07T02:11:42.792Z,1006.37
2023-04-07T02:12:43.842Z,1006.39
2023-04-07T02:13:43.118Z,1006.34
2023-04-07T02:14:43.326Z,1006.46
2023-04-07T02:15:44.350Z,1006.33
2023-04-07T02:16:45.793Z,1006.37
2023-04-07T02:17:43.932Z,1006.35
2023-04-07T02:18:44.893Z,1006.35
2023-04-07T02:19:44.169Z,1006.34
2023-04-07T02:20:44.401Z,1006.33
2023-04-07T02:21:45.389Z,1006.35
2023-04-07T02:22:44.777Z,1006.40
2023-04-07T02:23:44.986Z,1006.30
2023-04-07T02:24:45.173Z,1006.35
2023-04-07T02:25:45.329Z,1006.34
2023-04-07T02:26:45.511Z,1006.33
2023-04-07T02:27:45.678Z,1006.38
2023-04-07T02:28:45.900Z,1006.34
2023-04-07T02:29:46.099Z,1006.32
2023-04-07T02:30:46.297Z,1006.31
2023-04-07T02:31:46.492Z,1006.32
2023-04-07T02:32:46.667Z,1006.35
2023-04-07T02:33:47.356Z,1006.35
2023-04-07T02:34:46.900Z,1006.29
2023-04-07T02:35:47.896Z,1006.33
2023-04-07T02:36:47.950Z,1006.33
2023-04-07T02:37:48.389Z,1006.32
2023-04-07T02:38:48.389Z,1006.32
2023-04-07T02:39:47.792Z,1006.36
2023-04-07T02:40:48.891Z,1006.31
2023-04-07T02:41:48.857Z,1006.32
2023-04-07T02:42:48.387Z,1006.31
2023-04-07T02:43:49.355Z,1006.28
2023-04-07T02:44:49.355Z,1006.27
2023-04-07T02:45:48.888Z,1006.31
2023-04-07T02:46:49.058Z,1006.28
2023-04-07T02:47:49.319Z,1006.23
2023-04-07T02:48:50.356Z,1006.23
2023-04-07T02:49:49.518Z,1006.27
2023-04-07T02:50:50.852Z,1006.27
2023-04-07T02:51:49.863Z,1006.26
2023-04-07T02:52:50.858Z,1006.22
2023-04-07T02:53:50.856Z,1006.26
2023-04-07T02:54:51.367Z,1006.20
2023-04-07T02:55:50.619Z,1006.24
2023-04-07T02:56:50.797Z,1006.29
2023-04-07T02:57:50.975Z,1006.24
2023-04-07T02:58:51.804Z,1006.27
2023-04-07T02:59:51.317Z,1006.26
2023-04-07T03:00:52.428Z,1006.32
2023-04-07T03:01:51.770Z,1006.29
2023-04-07T03:02:52.134Z,1006.26
2023-04-07T03:03:52.456Z,1006.32
2023-04-07T03:04:52.285Z,1006.27
2023-04-07T03:05:52.415Z,1006.31
2023-04-07T03:06:52.586Z,1006.28
2023-04-07T03:07:53.364Z,1006.24
2023-04-07T03:08:53.865Z,1006.25
2023-04-07T03:09:53.124Z,1006.30
2023-04-07T03:10:53.299Z,1006.28
2023-04-07T03:11:53.464Z,1006.30
2023-04-07T03:12:54.349Z,1006.30
2023-04-07T03:13:54.034Z,1006.21
2023-04-07T03:14:54.057Z,1006.23
2023-04-07T03:15:54.898Z,1006.29
2023-04-07T03:16:55.418Z,1006.23
2023-04-07T03:17:56.397Z,1006.29
2023-04-07T03:18:55.353Z,1006.30
2023-04-07T03:19:54.943Z,1006.28
2023-04-07T03:20:55.900Z,1006.23
2023-04-07T03:21:55.902Z,1006.27
2023-04-07T03:22:55.418Z,1006.25
2023-04-07T03:23:55.741Z,1006.27
2023-04-07T03:24:55.904Z,1006.29
2023-04-07T03:25:56.857Z,1006.25
2023-04-07T03:26:56.115Z,1006.21
2023-04-07T03:27:56.280Z,1006.24
2023-04-07T03:28:56.442Z,1006.28
2023-04-07T03:29:57.227Z,1006.17
2023-04-07T03:30:57.379Z,1006.23
2023-04-07T03:31:57.858Z,1006.21
2023-04-07T03:32:57.179Z,1006.18
2023-04-07T03:33:57.292Z,1006.20
2023-04-07T03:34:57.460Z,1006.25
2023-04-07T03:35:58.415Z,1006.17
2023-04-07T03:36:57.810Z,1006.20
2023-04-07T03:37:57.968Z,1006.17
2023-04-07T03:38:58.909Z,1006.21
2023-04-07T03:39:58.902Z,1006.17
2023-04-07T03:40:58.519Z,1006.19
2023-04-07T03:41:58.667Z,1006.21
2023-04-07T03:42:58.952Z,1006.19
2023-04-07T03:43:59.069Z,1006.21
2023-04-07T03:44:59.864Z,1006.16
2023-04-07T03:45:59.387Z,1006.20
2023-04-07T03:46:59.554Z,1006.20
2023-04-07T03:47:59.747Z,1006.18
2023-04-07T03:48:59.908Z,1006.25
2023-04-07T03:50:00.862Z,1006.24
2023-04-07T03:51:00.218Z,1006.27
2023-04-07T03:52:00.352Z,1006.25
2023-04-07T03:53:00.503Z,1006.16
2023-04-07T03:54:00.685Z,1006.23
2023-04-07T03:55:00.877Z,1006.25
2023-04-07T03:56:01.078Z,1006.21
2023-04-07T03:57:01.234Z,1006.24
2023-04-07T03:58:01.381Z,1006.23
2023-04-07T03:59:02.362Z,1006.20
2023-04-07T04:00:01.788Z,1006.18
2023-04-07T04:01:01.941Z,1006.20
2023-04-07T04:02:04.914Z,1006.25
2023-04-07T04:03:02.430Z,1006.21
2023-04-07T04:04:02.623Z,1006.18
2023-04-07T04:05:02.692Z,1006.18
2023-04-07T04:06:02.902Z,1006.21
2023-04-07T04:07:03.094Z,1006.26
2023-04-07T04:08:03.274Z,1006.21
2023-04-07T04:09:03.463Z,1006.27
2023-04-07T04:10:04.417Z,1006.24
2023-04-07T04:11:04.872Z,1006.23
2023-04-07T04:12:04.029Z,1006.16
2023-04-07T04:13:04.914Z,1006.27
2023-04-07T04:14:04.405Z,1006.29
2023-04-07T04:15:04.578Z,1006.28
2023-04-07T04:16:04.859Z,1006.30
2023-04-07T04:17:05.455Z,1006.30
2023-04-07T04:18:08.393Z,1006.28
2023-04-07T04:19:05.249Z,1006.24
2023-04-07T04:20:05.426Z,1006.31
2023-04-07T04:21:06.373Z,1006.30
2023-04-07T04:22:06.377Z,1006.25
2023-04-07T04:23:05.889Z,1006.33
2023-04-07T04:24:06.068Z,1006.17
2023-04-07T04:25:06.909Z,1006.31
2023-04-07T04:26:06.430Z,1006.27
2023-04-07T04:27:06.941Z,1006.32
2023-04-07T04:28:06.709Z,1006.29
2023-04-07T04:29:07.378Z,1006.24
2023-04-07T04:30:07.916Z,1006.29
2023-04-07T04:31:07.191Z,1006.24
2023-04-07T04:32:07.884Z,1006.31
2023-04-07T04:33:07.542Z,1006.29
2023-04-07T04:34:07.741Z,1006.31
2023-04-07T04:35:07.897Z,1006.23
2023-04-07T04:36:08.053Z,1006.25
2023-04-07T04:37:09.742Z,1006.30
2023-04-07T04:38:08.886Z,1006.26
2023-04-07T04:39:08.539Z,1006.28
2023-04-07T04:40:09.442Z,1006.24
2023-04-07T04:41:09.399Z,1006.33
2023-04-07T04:42:09.919Z,1006.29
2023-04-07T04:43:09.139Z,1006.28
2023-04-07T04:44:09.428Z,1006.37
2023-04-07T04:45:09.512Z,1006.32
2023-04-07T04:46:12.745Z,1006.32
2023-04-07T04:47:09.897Z,1006.33
2023-04-07T04:48:10.117Z,1006.32
2023-04-07T04:49:10.262Z,1006.36
2023-04-07T04:50:12.390Z,1006.28
2023-04-07T04:51:10.927Z,1006.28
2023-04-07T04:52:10.831Z,1006.30
2023-04-07T04:53:11.885Z,1006.35
2023-04-07T04:54:11.137Z,1006.35
2023-04-07T04:55:13.972Z,1006.36
2023-04-07T04:56:11.926Z,1006.37
2023-04-07T04:57:12.383Z,1006.34
2023-04-07T04:58:11.872Z,1006.39
2023-04-07T04:59:12.027Z,1006.37
2023-04-07T05:00:12.217Z,1006.36
2023-04-07T05:01:13.446Z,1006.32
2023-04-07T05:02:12.567Z,1006.35
2023-04-07T05:03:14.750Z,1006.31
2023-04-07T05:04:13.076Z,1006.37
2023-04-07T05:05:14.056Z,1006.35
2023-04-07T05:06:13.880Z,1006.30
2023-04-07T05:07:13.520Z,1006.36
2023-04-07T05:08:13.674Z,1006.36
2023-04-07T05:09:13.828Z,1006.39
2023-04-07T05:10:13.967Z,1006.35
2023-04-07T05:11:14.126Z,1006.44
2023-04-07T05:12:14.317Z,1006.46
2023-04-07T05:13:14.490Z,1006.39
2023-04-07T05:14:15.417Z,1006.40
2023-04-07T05:15:14.812Z,1006.39
2023-04-07T05:16:15.993Z,1006.33
2023-04-07T05:17:15.163Z,1006.39
2023-04-07T05:18:16.388Z,1006.40
2023-04-07T05:19:16.428Z,1006.43
2023-04-07T05:20:16.432Z,1006.42
2023-04-07T05:21:16.938Z,1006.45
2023-04-07T05:22:16.439Z,1006.36
2023-04-07T05:23:17.251Z,1006.44
2023-04-07T05:24:17.389Z,1006.39
2023-04-07T05:25:17.400Z,1006.44
2023-04-07T05:26:16.796Z,1006.45
2023-04-07T05:27:16.946Z,1006.44
2023-04-07T05:28:17.096Z,1006.43
2023-04-07T05:29:17.244Z,1006.47
2023-04-07T05:30:17.917Z,1006.48
2023-04-07T05:31:18.918Z,1006.52
2023-04-07T05:32:19.395Z,1006.48
2023-04-07T05:33:17.866Z,1006.49
2023-04-07T05:34:18.940Z,1006.45
2023-04-07T05:35:19.392Z,1006.50
2023-04-07T05:36:18.913Z,1006.46
2023-04-07T05:37:18.561Z,1006.36
2023-04-07T05:38:18.746Z,1006.53
2023-04-07T05:39:20.897Z,1006.44
2023-04-07T05:40:19.929Z,1006.38
2023-04-07T05:41:19.892Z,1006.40
2023-04-07T05:42:19.470Z,1006.37
2023-04-07T05:43:20.399Z,1006.42
2023-04-07T05:44:19.804Z,1006.39
2023-04-07T05:45:20.489Z,1006.38
2023-04-07T05:46:21.008Z,1006.39
2023-04-07T05:47:20.445Z,1006.43
2023-04-07T05:48:21.397Z,1006.47
2023-04-07T05:49:21.431Z,1006.45
2023-04-07T05:50:20.960Z,1006.41
2023-04-07T05:51:21.901Z,1006.44
2023-04-07T05:52:21.295Z,1006.42
2023-04-07T05:53:21.450Z,1006.42
2023-04-07T05:54:21.625Z,1006.51
2023-04-07T05:55:21.749Z,1006.51
2023-04-07T05:56:23.760Z,1006.48
2023-04-07T05:57:22.116Z,1006.45
2023-04-07T05:58:22.276Z,1006.45
2023-04-07T05:59:22.447Z,1006.46
2023-04-07T06:00:22.650Z,1006.48
2023-04-07T06:01:23.441Z,1006.46
2023-04-07T06:02:23.532Z,1006.46
2023-04-07T06:03:23.062Z,1006.42
2023-04-07T06:04:24.901Z,1006.42
2023-04-07T06:05:23.434Z,1006.44
2023-04-07T06:06:23.622Z,1006.46
2023-04-07T06:07:23.850Z,1006.46
2023-04-07T06:08:25.396Z,1006.49
2023-04-07T06:09:24.901Z,1006.54
2023-04-07T06:10:24.911Z,1006.56
2023-04-07T06:11:24.320Z,1006.53
2023-04-07T06:12:25.400Z,1006.53
2023-04-07T06:13:24.690Z,1006.45
2023-04-07T06:14:24.863Z,1006.50
2023-04-07T06:15:25.946Z,1006.53
2023-04-07T06:16:25.908Z,1006.53
2023-04-07T06:17:26.499Z,1006.54
2023-04-07T06:18:25.669Z,1006.50
2023-04-07T06:19:25.845Z,1006.55
2023-04-07T06:20:26.950Z,1006.54
2023-04-07T06:21:26.254Z,1006.51
2023-04-07T06:22:26.451Z,1006.52
2023-04-07T06:23:28.461Z,1006.51
2023-04-07T06:24:26.874Z,1006.52
2023-04-07T06:25:28.772Z,1006.55
2023-04-07T06:26:27.281Z,1006.52
2023-04-07T06:27:28.414Z,1006.53
2023-04-07T06:28:27.597Z,1006.50
2023-04-07T06:29:27.712Z,1006.49
2023-04-07T06:30:27.873Z,1006.55
2023-04-07T06:31:28.018Z,1006.51
2023-04-07T06:32:28.209Z,1006.53
2023-04-07T06:33:28.338Z,1006.52
2023-04-07T06:34:28.454Z,1006.54
2023-04-07T06:35:28.678Z,1006.52
2023-04-07T06:36:29.412Z,1006.49
2023-04-07T06:37:29.150Z,1006.47
2023-04-07T06:38:29.904Z,1006.52
2023-04-07T06:39:30.441Z,1006.44
2023-04-07T06:40:30.441Z,1006.42
2023-04-07T06:41:30.945Z,1006.45
2023-04-07T06:42:30.111Z,1006.53
2023-04-07T06:43:30.942Z,1006.54
2023-04-07T06:44:30.495Z,1006.57
2023-04-07T06:45:31.285Z,1006.61
2023-04-07T06:46:30.828Z,1006.56
2023-04-07T06:47:31.010Z,1006.55
2023-04-07T06:48:31.951Z,1006.59
2023-04-07T06:49:31.905Z,1006.54
2023-04-07T06:50:31.966Z,1006.52
2023-04-07T06:51:31.752Z,1006.56
2023-04-07T06:52:31.919Z,1006.55
2023-04-07T06:53:32.915Z,1006.54
2023-04-07T06:54:32.323Z,1006.60
2023-04-07T06:55:32.516Z,1006.59
2023-04-07T06:56:34.405Z,1006.59
2023-04-07T06:57:33.906Z,1006.55
2023-04-07T06:58:33.463Z,1006.61
2023-04-07T06:59:33.928Z,1006.62
2023-04-07T07:00:33.447Z,1006.60
2023-04-07T07:01:34.487Z,1006.54
2023-04-07T07:02:34.494Z,1006.55
2023-04-07T07:03:34.861Z,1006.54
2023-04-07T07:04:34.128Z,1006.56
2023-04-07T07:05:34.961Z,1006.50
2023-04-07T07:06:34.952Z,1006.52
2023-04-07T07:07:34.967Z,1006.59
2023-04-07T07:08:34.748Z,1006.51
2023-04-07T07:09:34.940Z,1006.49
2023-04-07T07:10:35.134Z,1006.49
2023-04-07T07:11:35.326Z,1006.54
2023-04-07T07:12:35.961Z,1006.55
2023-04-07T07:13:36.476Z,1006.49
2023-04-07T07:14:35.810Z,1006.52
2023-04-07T07:15:35.968Z,1006.50
2023-04-07T07:16:36.162Z,1006.48
2023-04-07T07:17:36.368Z,1006.48
2023-04-07T07:18:36.563Z,1006.49
2023-04-07T07:19:36.788Z,1006.46
2023-04-07T07:20:37.913Z,1006.48
2023-04-07T07:21:37.914Z,1006.46
2023-04-07T07:22:38.780Z,1006.44
2023-04-07T07:23:37.527Z,1006.39
2023-04-07T07:24:37.695Z,1006.47
2023-04-07T07:25:37.828Z,1006.44
2023-04-07T07:26:42.846Z,1006.41
2023-04-07T07:27:39.440Z,1006.46
2023-04-07T07:28:38.360Z,1006.45
2023-04-07T07:29:38.545Z,1006.44
2023-04-07T07:30:38.674Z,1006.42
2023-04-07T07:31:38.883Z,1006.48
2023-04-07T07:32:39.078Z,1006.45
2023-04-07T07:33:40.913Z,1006.53
2023-04-07T07:34:39.260Z,1006.49
2023-04-07T07:35:40.947Z,1006.52
2023-04-07T07:36:40.412Z,1006.47
2023-04-07T07:37:39.787Z,1006.51
2023-04-07T07:38:40.470Z,1006.41
2023-04-07T07:39:40.089Z,1006.45
2023-04-07T07:40:40.223Z,1006.54
2023-04-07T07:41:40.380Z,1006.49
2023-04-07T07:42:40.515Z,1006.50
2023-04-07T07:43:41.912Z,1006.50
2023-04-07T07:44:41.413Z,1006.57
2023-04-07T07:45:40.985Z,1006.53
2023-04-07T07:46:41.284Z,1006.57
2023-04-07T07:47:42.074Z,1006.63
2023-04-07T07:48:42.473Z,1006.59
2023-04-07T07:49:41.632Z,1006.63
2023-04-07T07:50:42.463Z,1006.54
2023-04-07T07:51:42.048Z,1006.58
2023-04-07T07:52:42.925Z,1006.60
2023-04-07T07:53:42.410Z,1006.57
2023-04-07T07:54:42.547Z,1006.55
2023-04-07T07:55:43.417Z,1006.57
2023-04-07T07:56:42.970Z,1006.57
2023-04-07T07:57:43.125Z,1006.61
2023-04-07T07:58:43.963Z,1006.57
2023-04-07T07:59:43.967Z,1006.62
2023-04-07T08:00:44.473Z,1006.60
2023-04-07T08:01:43.924Z,1006.66
2023-04-07T08:02:45.086Z,1006.61
2023-04-07T08:03:44.285Z,1006.66
2023-04-07T08:04:44.447Z,1006.69
2023-04-07T08:05:44.535Z,1006.68
2023-04-07T08:06:46.921Z,1006.72
2023-04-07T08:07:44.906Z,1006.64
2023-04-07T08:08:45.477Z,1006.69
2023-04-07T08:09:45.255Z,1006.73
2023-04-07T08:10:45.420Z,1006.75
2023-04-07T08:11:47.922Z,1006.74
2023-04-07T08:12:45.768Z,1006.75
2023-04-07T08:13:46.296Z,1006.76
2023-04-07T08:14:46.167Z,1006.74
2023-04-07T08:15:46.936Z,1006.80
2023-04-07T08:16:46.552Z,1006.80
2023-04-07T08:17:47.548Z,1006.83
2023-04-07T08:18:47.169Z,1006.87
2023-04-07T08:19:47.471Z,1006.84
2023-04-07T08:20:47.920Z,1006.89
2023-04-07T08:21:47.420Z,1006.85
2023-04-07T08:22:47.584Z,1006.81
2023-04-07T08:23:48.672Z,1006.80
2023-04-07T08:24:47.999Z,1006.87
2023-04-07T08:25:48.175Z,1006.84
2023-04-07T08:26:48.923Z,1006.83
2023-04-07T08:27:50.291Z,1006.80
2023-04-07T08:28:49.463Z,1006.82
2023-04-07T08:29:49.032Z,1006.90
2023-04-07T08:30:49.917Z,1006.92
2023-04-07T08:31:49.551Z,1006.84
2023-04-07T08:32:50.430Z,1006.90
2023-04-07T08:33:50.679Z,1006.88
2023-04-07T08:34:49.996Z,1006.89
2023-04-07T08:35:51.009Z,1006.82
2023-04-07T08:36:50.324Z,1006.86
2023-04-07T08:37:50.474Z,1006.82
2023-04-07T08:38:50.658Z,1006.92
2023-04-07T08:39:51.793Z,1006.84
2023-04-07T08:40:51.062Z,1006.84
2023-04-07T08:41:51.932Z,1006.86
2023-04-07T08:42:52.929Z,1006.87
2023-04-07T08:43:51.684Z,1006.80
2023-04-07T08:44:51.897Z,1006.80
2023-04-07T08:45:53.513Z,1006.77
2023-04-07T08:46:53.299Z,1006.77
2023-04-07T08:47:52.373Z,1006.79
2023-04-07T08:48:52.584Z,1006.80
2023-04-07T08:49:53.503Z,1006.80
2023-04-07T08:50:53.024Z,1006.80
2023-04-07T08:51:53.944Z,1006.82
2023-04-07T08:52:53.318Z,1006.77
2023-04-07T08:53:53.517Z,1006.83
2023-04-07T08:54:54.439Z,1006.82
2023-04-07T08:55:53.826Z,1006.80
2023-04-07T08:56:53.968Z,1006.80
2023-04-07T08:57:54.936Z,1006.79
2023-04-07T08:58:54.480Z,1006.74
2023-04-07T08:59:54.510Z,1006.76
2023-04-07T09:00:55.508Z,1006.79
2023-04-07T09:01:54.960Z,1006.78
2023-04-07T09:02:57.010Z,1006.79
2023-04-07T09:03:55.518Z,1006.80
2023-04-07T09:04:56.935Z,1006.83
2023-04-07T09:05:55.676Z,1006.80
2023-04-07T09:06:55.872Z,1006.80
2023-04-07T09:07:56.020Z,1006.78
2023-04-07T09:08:57.931Z,1006.77
2023-04-07T09:09:56.295Z,1006.79
2023-04-07T09:10:56.486Z,1006.79
2023-04-07T09:11:58.435Z,1006.82
2023-04-07T09:12:56.803Z,1006.80
2023-04-07T09:13:56.992Z,1006.82
2023-04-07T09:14:57.174Z,1006.79
2023-04-07T09:15:57.332Z,1006.86
2023-04-07T09:16:57.509Z,1006.91
2023-04-07T09:17:57.620Z,1006.88
2023-04-07T09:18:57.790Z,1006.90
2023-04-07T09:19:57.953Z,1006.83
2023-04-07T09:20:58.522Z,1006.88
2023-04-07T09:21:58.302Z,1006.89
2023-04-07T09:22:58.969Z,1006.87
2023-04-07T09:23:58.702Z,1006.90
2023-04-07T09:24:59.581Z,1006.87
2023-04-07T09:26:00.105Z,1006.93
2023-04-07T09:26:59.233Z,1006.84
2023-04-07T09:28:00.942Z,1006.88
2023-04-07T09:29:00.007Z,1006.83
2023-04-07T09:30:00.439Z,1006.86
2023-04-07T09:31:01.456Z,1006.85
2023-04-07T09:32:00.979Z,1006.84
2023-04-07T09:33:01.040Z,1006.86
2023-04-07T09:34:00.476Z,1006.89
2023-04-07T09:35:00.632Z,1006.94
2023-04-07T09:36:00.803Z,1006.91
2023-04-07T09:37:00.997Z,1006.95
2023-04-07T09:38:01.169Z,1006.90
2023-04-07T09:39:01.939Z,1006.91
2023-04-07T09:40:01.445Z,1006.95
2023-04-07T09:41:01.666Z,1007.01
2023-04-07T09:42:02.442Z,1006.96
2023-04-07T09:43:02.500Z,1006.97
2023-04-07T09:44:02.960Z,1007.00
2023-04-07T09:45:02.993Z,1007.00
2023-04-07T09:46:02.565Z,1007.01
2023-04-07T09:47:03.434Z,1007.02
2023-04-07T09:48:02.974Z,1007.06
2023-04-07T09:49:03.982Z,1007.11
2023-04-07T09:50:03.347Z,1007.05
2023-04-07T09:51:03.525Z,1007.07
2023-04-07T09:52:03.646Z,1007.11
2023-04-07T09:53:03.799Z,1007.12
2023-04-07T09:54:04.502Z,1007.12
2023-04-07T09:55:04.135Z,1007.10
2023-04-07T09:56:04.496Z,1007.15
2023-04-07T09:57:04.514Z,1007.11
2023-04-07T09:58:06.444Z,1007.11
2023-04-07T09:59:04.828Z,1007.07
2023-04-07T10:00:05.482Z,1007.09
2023-04-07T10:01:05.181Z,1007.07
2023-04-07T10:02:06.148Z,1007.10
2023-04-07T10:03:05.785Z,1007.17
2023-04-07T10:04:05.783Z,1007.08
2023-04-07T10:05:05.968Z,1007.10
2023-04-07T10:06:06.133Z,1007.09
2023-04-07T10:07:07.002Z,1007.10
2023-04-07T10:08:06.520Z,1007.11
2023-04-07T10:09:06.670Z,1007.12
2023-04-07T10:10:08.491Z,1007.12
2023-04-07T10:11:08.454Z,1007.07
2023-04-07T10:12:07.227Z,1007.15
2023-04-07T10:13:07.395Z,1007.12
2023-04-07T10:14:07.564Z,1007.12
2023-04-07T10:15:07.726Z,1007.20
2023-04-07T10:16:07.858Z,1007.12
2023-04-07T10:17:08.042Z,1007.12
2023-04-07T10:18:08.195Z,1007.17
2023-04-07T10:19:08.342Z,1007.17
2023-04-07T10:20:08.535Z,1007.16
2023-04-07T10:21:08.732Z,1007.19
2023-04-07T10:22:09.494Z,1007.22
2023-04-07T10:23:09.009Z,1007.21
2023-04-07T10:24:09.173Z,1007.26
2023-04-07T10:25:09.954Z,1007.24
2023-04-07T10:26:10.321Z,1007.25
2023-04-07T10:27:09.696Z,1007.29
2023-04-07T10:28:11.451Z,1007.39
2023-04-07T10:29:10.991Z,1007.30
2023-04-07T10:30:11.822Z,1007.27
2023-04-07T10:31:11.508Z,1007.33
2023-04-07T10:32:10.571Z,1007.38
2023-04-07T10:33:10.748Z,1007.41
2023-04-07T10:34:10.918Z,1007.37
2023-04-07T10:35:11.133Z,1007.32
2023-04-07T10:36:12.051Z,1007.33
2023-04-07T10:37:11.440Z,1007.30
2023-04-07T10:38:11.711Z,1007.31
2023-04-07T10:39:11.830Z,1007.35
2023-04-07T10:40:12.515Z,1007.34
2023-04-07T10:41:12.164Z,1007.29
2023-04-07T10:42:12.996Z,1007.37
2023-04-07T10:43:13.498Z,1007.39
2023-04-07T10:44:46.935Z,1007.40
2023-04-07T10:45:13.510Z,1007.36
2023-04-07T10:46:13.099Z,1007.38
2023-04-07T10:47:13.270Z,1007.40
2023-04-07T10:48:14.018Z,1007.35
2023-04-07T10:49:15.189Z,1007.40
2023-04-07T10:50:13.905Z,1007.40
2023-04-07T10:51:14.102Z,1007.40
2023-04-07T10:52:15.053Z,1007.38
2023-04-07T10:53:15.049Z,1007.38
2023-04-07T10:54:14.593Z,1007.39
2023-04-07T10:55:15.064Z,1007.39
2023-04-07T10:56:14.992Z,1007.48
2023-04-07T10:57:15.174Z,1007.44
2023-04-07T10:58:15.400Z,1007.38
2023-04-07T10:59:16.090Z,1007.53
2023-04-07T11:00:16.551Z,1007.47
2023-04-07T11:01:15.977Z,1007.43
2023-04-07T11:02:16.176Z,1007.45
2023-04-07T11:03:16.374Z,1007.45
2023-04-07T11:04:16.506Z,1007.43
2023-04-07T11:05:16.506Z,1007.42
2023-04-07T11:06:19.516Z,1007.49
2023-04-07T11:07:16.878Z,1007.53
2023-04-07T11:08:17.013Z,1007.39
2023-04-07T11:09:17.554Z,1007.42
2023-04-07T11:10:17.360Z,1007.49
2023-04-07T11:11:19.002Z,1007.39
2023-04-07T11:12:18.552Z,1007.48
2023-04-07T11:13:17.976Z,1007.48
2023-04-07T11:14:18.158Z,1007.50
2023-04-07T11:15:51.830Z,1007.43
2023-04-07T11:16:19.103Z,1007.51
2023-04-07T11:17:20.401Z,1007.52
2023-04-07T11:18:20.540Z,1007.51
2023-04-07T11:19:18.949Z,1007.49
2023-04-07T11:20:19.056Z,1007.54
2023-04-07T11:21:20.556Z,1007.50
2023-04-07T11:23:21.548Z,1007.46
2023-04-07T11:24:19.779Z,1007.44
2023-04-07T11:25:19.974Z,1007.44
2023-04-07T11:26:20.171Z,1007.40
2023-04-07T11:27:20.314Z,1007.47
2023-04-07T11:28:21.410Z,1007.45
2023-04-07T11:29:20.697Z,1007.50
2023-04-07T11:30:21.581Z,1007.46
2023-04-07T11:31:21.130Z,1007.51
2023-04-07T11:32:22.953Z,1007.43
2023-04-07T11:33:21.502Z,1007.47
2023-04-07T11:34:22.585Z,1007.41
2023-04-07T11:35:22.585Z,1007.41
2023-04-07T11:36:23.545Z,1007.43
2023-04-07T11:37:22.187Z,1007.47
2023-04-07T11:38:23.541Z,1007.42
2023-04-07T11:39:22.564Z,1007.43
2023-04-07T11:40:22.713Z,1007.34
2023-04-07T11:41:22.876Z,1007.36
2023-04-07T11:42:23.599Z,1007.33
2023-04-07T11:43:23.262Z,1007.32
2023-04-07T11:44:24.160Z,1007.35
2023-04-07T11:45:23.564Z,1007.28
2023-04-07T11:46:25.060Z,1007.30
2023-04-07T11:47:23.891Z,1007.30
2023-04-07T11:48:56.965Z,1007.22
2023-04-07T11:49:25.122Z,1007.17
2023-04-07T11:50:25.124Z,1007.19
2023-04-07T11:51:24.535Z,1007.22
2023-04-07T11:52:24.672Z,1007.21
2023-04-07T11:53:24.817Z,1007.23
2023-04-07T11:54:24.977Z,1007.20
2023-04-07T11:55:25.139Z,1007.15
2023-04-07T11:56:26.121Z,1007.21
2023-04-07T11:57:25.634Z,1007.19
2023-04-07T11:58:25.713Z,1007.16
2023-04-07T11:59:25.858Z,1007.19
2023-04-07T12:00:26.055Z,1007.21
2023-04-07T12:01:27.134Z,1007.17
2023-04-07T12:02:26.677Z,1007.17
2023-04-07T12:03:27.236Z,1007.17
2023-04-07T12:04:26.876Z,1007.21
2023-04-07T12:05:26.893Z,1007.13
2023-04-07T12:06:27.634Z,1007.14
2023-04-07T12:07:28.431Z,1007.14
2023-04-07T12:08:28.645Z,1007.17